Chia-i, Taiwan
Current Conditions -  °F | °C
As of 10:12 AM on Friday 19 Dec 2014 (Local Time) from RCMQ Reporting Station
Light Rain Light Rain  
Wind Chill: 16°   Ceiling: 3000
Heat Index: 16°   Visibility: 2.5mi
Dew Point: 13°   Wind: 5mph
Humidity: 82%   Direction: 350°N
Pressure: 30.21"   Gusts: NA
Location:  23.48°N, 120.44°E
Report Text: RCMQ 190212Z 35004KT 4000 -RA BR FEW008 BKN030 BKN050 16/13 Q1023 RMK A3022
Loading
Personal Weather Stations






























Interactive Weather Map New forecast layout! Learn more

10-Day Weather Forecast

Advertisements
Track Severe Weather on mobile